createdAt,value
2023-05-22T00:01:46.708Z,45.78
2023-05-22T00:04:21.059Z,46.05
2023-05-22T00:06:49.302Z,46.25
2023-05-22T00:09:17.420Z,46.33
2023-05-22T00:11:45.407Z,46.46
2023-05-22T00:14:16.104Z,46.57
2023-05-22T00:16:43.816Z,46.75
2023-05-22T00:19:17.297Z,46.93
2023-05-22T00:21:45.265Z,47.23
2023-05-22T00:24:12.852Z,47.63
2023-05-22T00:26:40.512Z,47.38
2023-05-22T00:29:08.330Z,47.32
2023-05-22T00:31:35.971Z,47.33
2023-05-22T00:34:03.596Z,47.58
2023-05-22T00:36:31.482Z,47.63
2023-05-22T00:38:59.973Z,47.93
2023-05-22T00:41:27.775Z,47.95
2023-05-22T00:43:55.680Z,47.80
2023-05-22T00:46:24.364Z,47.90
2023-05-22T00:48:52.851Z,47.92
2023-05-22T00:51:22.164Z,47.95
2023-05-22T00:53:51.018Z,47.99
2023-05-22T00:56:19.396Z,48.03
2023-05-22T00:58:47.431Z,48.19
2023-05-22T01:01:16.002Z,48.15
2023-05-22T01:03:45.877Z,48.06
2023-05-22T01:06:15.786Z,47.97
2023-05-22T01:08:44.942Z,48.03
2023-05-22T01:11:17.960Z,48.11
2023-05-22T01:14:17.677Z,48.46
2023-05-22T01:17:22.565Z,49.23
2023-05-22T01:20:14.252Z,49.21
2023-05-22T01:23:13.872Z,49.32
2023-05-22T01:26:02.609Z,49.58
2023-05-22T01:28:46.126Z,49.43
2023-05-22T01:31:19.245Z,49.30
2023-05-22T01:33:51.338Z,49.42
2023-05-22T01:36:24.392Z,49.58
2023-05-22T01:38:52.905Z,49.72
2023-05-22T01:41:21.422Z,49.80
2023-05-22T01:43:49.386Z,49.75
2023-05-22T01:46:17.048Z,49.83
2023-05-22T01:48:44.711Z,50.19
2023-05-22T01:51:26.509Z,50.39
2023-05-22T01:54:10.060Z,50.85
2023-05-22T01:56:59.984Z,51.19
2023-05-22T01:59:47.596Z,51.68
2023-05-22T02:02:18.849Z,51.81
2023-05-22T02:04:56.114Z,52.03
2023-05-22T02:07:24.942Z,52.00
2023-05-22T02:09:56.699Z,52.07
2023-05-22T02:12:24.957Z,52.17
2023-05-22T02:14:53.274Z,52.14
2023-05-22T02:17:21.969Z,52.25
2023-05-22T02:19:49.637Z,52.07
2023-05-22T02:22:17.524Z,52.12
2023-05-22T02:24:47.611Z,52.24
2023-05-22T02:27:17.225Z,52.41
2023-05-22T02:29:45.021Z,52.51
2023-05-22T02:32:12.647Z,52.64
2023-05-22T02:34:40.279Z,52.62
2023-05-22T02:37:07.934Z,52.68
2023-05-22T02:39:35.726Z,52.79
2023-05-22T02:42:04.912Z,53.01
2023-05-22T02:44:32.714Z,53.18
2023-05-22T02:47:00.569Z,53.23
2023-05-22T02:49:28.306Z,53.40
2023-05-22T02:51:55.973Z,53.33
2023-05-22T02:54:23.572Z,53.50
2023-05-22T02:56:51.434Z,53.58
2023-05-22T02:59:19.149Z,53.65
2023-05-22T03:01:48.523Z,53.81
2023-05-22T03:04:16.297Z,53.80
2023-05-22T03:06:46.103Z,53.88
2023-05-22T03:09:14.142Z,54.01
2023-05-22T03:11:42.295Z,54.10
2023-05-22T03:14:09.930Z,54.26
2023-05-22T03:16:37.659Z,54.35
2023-05-22T03:19:12.897Z,54.47
2023-05-22T03:21:41.585Z,54.60
2023-05-22T03:24:09.246Z,54.52
2023-05-22T03:26:37.182Z,54.64
2023-05-22T03:29:05.780Z,54.76
2023-05-22T03:31:34.452Z,54.78
2023-05-22T03:34:07.146Z,54.93
2023-05-22T03:36:36.159Z,55.02
2023-05-22T03:39:04.928Z,55.14
2023-05-22T03:41:35.190Z,55.21
2023-05-22T03:44:03.844Z,55.24
2023-05-22T03:46:31.771Z,55.32
2023-05-22T03:48:59.915Z,55.45
2023-05-22T03:51:27.578Z,55.56
2023-05-22T03:53:55.300Z,55.55
2023-05-22T03:56:23.115Z,55.63
2023-05-22T03:58:50.845Z,55.69
2023-05-22T04:01:18.589Z,55.72
2023-05-22T04:03:46.466Z,55.84
2023-05-22T04:06:14.627Z,55.92
2023-05-22T04:08:42.380Z,56.02
2023-05-22T04:11:10.024Z,55.96
2023-05-22T04:13:38.303Z,55.77
2023-05-22T04:16:07.491Z,55.35
2023-05-22T04:18:35.456Z,55.05
2023-05-22T04:21:03.270Z,55.00
2023-05-22T04:23:31.761Z,55.08
2023-05-22T04:26:02.285Z,54.91
2023-05-22T04:28:30.298Z,54.83
2023-05-22T04:30:58.157Z,54.74
2023-05-22T04:33:25.932Z,54.75
2023-05-22T04:35:54.393Z,54.56
2023-05-22T04:38:22.141Z,54.65
2023-05-22T04:40:50.115Z,54.58
2023-05-22T04:43:18.607Z,54.77
2023-05-22T04:45:46.265Z,55.00
2023-05-22T04:48:15.266Z,55.29
2023-05-22T04:50:46.292Z,55.45
2023-05-22T04:53:14.584Z,55.38
2023-05-22T04:55:42.325Z,55.47
2023-05-22T04:58:10.289Z,55.71
2023-05-22T05:00:38.298Z,55.86
2023-05-22T05:03:08.305Z,55.93
2023-05-22T05:05:36.220Z,55.84
2023-05-22T05:08:04.321Z,55.62
2023-05-22T05:10:32.120Z,55.49
2023-05-22T05:12:59.865Z,55.60
2023-05-22T05:15:29.296Z,55.82
2023-05-22T05:17:56.931Z,56.07
2023-05-22T05:20:24.741Z,56.02
2023-05-22T05:22:52.503Z,56.00
2023-05-22T05:25:20.351Z,56.03
2023-05-22T05:27:48.508Z,55.88
2023-05-22T05:30:20.309Z,55.87
2023-05-22T05:33:11.833Z,55.95
2023-05-22T05:35:55.556Z,56.08
2023-05-22T05:38:25.781Z,56.01
2023-05-22T05:40:54.897Z,56.09
2023-05-22T05:43:25.210Z,56.11
2023-05-22T05:45:54.973Z,56.08
2023-05-22T05:48:23.108Z,55.85
2023-05-22T05:50:50.751Z,55.86
2023-05-22T05:53:19.626Z,55.92
2023-05-22T05:55:56.386Z,55.86
2023-05-22T05:58:24.193Z,56.09
2023-05-22T06:01:14.945Z,55.97
2023-05-22T06:03:42.751Z,55.99
2023-05-22T06:06:15.267Z,55.94
2023-05-22T06:08:59.062Z,55.81
2023-05-22T06:11:32.033Z,55.63
2023-05-22T06:14:02.693Z,55.45
2023-05-22T06:16:30.886Z,55.25
2023-05-22T06:18:59.736Z,55.04
2023-05-22T06:21:27.706Z,55.08
2023-05-22T06:23:55.651Z,55.09
2023-05-22T06:26:26.022Z,54.95
2023-05-22T06:28:54.488Z,54.83
2023-05-22T06:31:22.819Z,54.72
2023-05-22T06:33:51.829Z,54.63
2023-05-22T06:36:20.967Z,54.44
2023-05-22T06:38:49.611Z,54.46
2023-05-22T06:41:45.927Z,54.36
2023-05-22T06:44:15.490Z,54.55
2023-05-22T06:46:43.149Z,54.08
2023-05-22T06:49:16.869Z,53.71
2023-05-22T06:51:50.992Z,53.47
2023-05-22T06:54:21.108Z,53.07
2023-05-22T06:56:49.695Z,52.65
2023-05-22T06:59:18.599Z,52.58
2023-05-22T07:02:06.621Z,52.34
2023-05-22T07:04:43.309Z,52.10
2023-05-22T07:07:14.844Z,51.94
2023-05-22T07:09:43.571Z,51.91
2023-05-22T07:12:11.462Z,51.86
2023-05-22T07:14:40.438Z,51.70
2023-05-22T07:17:08.090Z,51.36
2023-05-22T07:19:40.906Z,50.79
2023-05-22T07:22:09.795Z,50.51
2023-05-22T07:24:39.027Z,50.69
2023-05-22T07:27:08.992Z,50.53
2023-05-22T07:29:36.731Z,50.41
2023-05-22T07:32:04.925Z,49.79
2023-05-22T07:34:34.191Z,49.94
2023-05-22T07:37:12.300Z,49.83
2023-05-22T07:39:42.544Z,49.61
2023-05-22T07:42:10.477Z,49.16
2023-05-22T07:44:43.621Z,48.67
2023-05-22T07:47:11.303Z,48.36
2023-05-22T07:49:39.818Z,48.57
2023-05-22T07:52:07.818Z,48.54
2023-05-22T07:54:35.765Z,48.51
2023-05-22T07:57:03.799Z,48.45
2023-05-22T07:59:35.826Z,48.28
2023-05-22T08:02:03.701Z,48.01
2023-05-22T08:04:31.596Z,47.94
2023-05-22T08:06:59.300Z,47.91
2023-05-22T08:09:27.190Z,47.74
2023-05-22T08:11:54.813Z,47.36
2023-05-22T08:14:22.789Z,47.29
2023-05-22T08:16:50.861Z,46.95
2023-05-22T08:19:19.002Z,46.87
2023-05-22T08:21:46.821Z,46.80
2023-05-22T08:24:14.926Z,46.57
2023-05-22T08:26:43.476Z,46.40
2023-05-22T08:29:11.773Z,46.37
2023-05-22T08:31:39.541Z,46.09
2023-05-22T08:34:07.403Z,46.24
2023-05-22T08:36:35.479Z,46.20
2023-05-22T08:39:04.547Z,46.06
2023-05-22T08:41:32.490Z,46.26
2023-05-22T08:44:00.305Z,46.42
2023-05-22T08:46:30.443Z,46.41
2023-05-22T08:48:58.908Z,45.97
2023-05-22T08:51:34.722Z,45.33
2023-05-22T08:54:05.777Z,45.21
2023-05-22T08:56:39.779Z,45.06
2023-05-22T08:59:13.856Z,44.73
2023-05-22T09:01:41.731Z,44.61
2023-05-22T09:04:09.739Z,44.70
2023-05-22T09:06:38.524Z,44.53
2023-05-22T09:09:06.168Z,44.48
2023-05-22T09:11:34.066Z,44.07
2023-05-22T09:14:18.569Z,44.03
2023-05-22T09:16:49.659Z,43.85
2023-05-22T09:19:17.624Z,43.90
2023-05-22T09:21:45.604Z,43.97
2023-05-22T09:24:13.659Z,43.91
2023-05-22T09:26:41.406Z,44.27
2023-05-22T09:29:09.287Z,44.13
2023-05-22T09:31:44.343Z,43.96
2023-05-22T09:34:14.561Z,43.71
2023-05-22T09:36:42.957Z,43.17
2023-05-22T09:39:14.390Z,42.70
2023-05-22T09:41:45.761Z,41.95
2023-05-22T09:44:15.214Z,41.48
2023-05-22T09:46:47.158Z,41.33
2023-05-22T09:49:16.983Z,41.02
2023-05-22T09:51:49.118Z,41.23
2023-05-22T09:54:20.001Z,40.54
2023-05-22T09:56:50.432Z,40.21
2023-05-22T09:59:22.235Z,40.04
2023-05-22T10:01:50.451Z,39.27
2023-05-22T10:04:18.795Z,39.82
2023-05-22T10:06:51.337Z,39.58
2023-05-22T10:09:23.542Z,39.90
2023-05-22T10:11:54.955Z,40.10
2023-05-22T10:14:23.812Z,40.03
2023-05-22T10:16:52.456Z,39.81
2023-05-22T10:19:21.369Z,39.46
2023-05-22T10:21:49.758Z,39.43
2023-05-22T10:24:17.569Z,39.71
2023-05-22T10:26:45.339Z,39.41
2023-05-22T10:29:22.232Z,39.20
2023-05-22T10:32:21.922Z,38.87
2023-05-22T10:35:18.609Z,38.74
2023-05-22T10:37:53.173Z,38.51
2023-05-22T10:40:32.758Z,38.35
2023-05-22T10:43:02.291Z,37.83
2023-05-22T10:45:31.400Z,37.90
2023-05-22T10:48:22.352Z,37.92
2023-05-22T10:50:52.825Z,37.40
2023-05-22T10:53:24.907Z,37.13
2023-05-22T10:55:56.989Z,37.00
2023-05-22T10:58:38.008Z,37.34
2023-05-22T11:01:13.196Z,37.29
2023-05-22T11:03:56.923Z,37.28
2023-05-22T11:06:33.332Z,37.27
2023-05-22T11:09:16.198Z,36.76
2023-05-22T11:11:46.925Z,36.66
2023-05-22T11:14:20.341Z,36.67
2023-05-22T11:16:48.018Z,36.52
2023-05-22T11:19:23.424Z,36.29
2023-05-22T11:21:51.639Z,36.12
2023-05-22T11:24:19.446Z,36.50
2023-05-22T11:27:07.789Z,36.41
2023-05-22T11:29:36.565Z,36.10
2023-05-22T11:32:05.312Z,36.14
2023-05-22T11:34:33.122Z,35.77
2023-05-22T11:37:01.495Z,35.57
2023-05-22T11:39:32.575Z,35.11
2023-05-22T11:42:00.963Z,34.90
2023-05-22T11:44:28.572Z,34.89
2023-05-22T11:46:56.321Z,34.73
2023-05-22T11:49:25.120Z,34.52
2023-05-22T11:51:53.065Z,33.40
2023-05-22T11:54:22.041Z,33.74
2023-05-22T11:56:49.647Z,33.82
2023-05-22T11:59:17.298Z,33.62
2023-05-22T12:01:45.356Z,33.98
2023-05-22T12:04:13.204Z,33.80
2023-05-22T12:06:41.626Z,33.52
2023-05-22T12:09:09.497Z,33.69
2023-05-22T12:11:37.566Z,34.08
2023-05-22T12:14:05.915Z,33.46
2023-05-22T12:16:37.100Z,33.37
2023-05-22T12:19:16.178Z,33.19
2023-05-22T12:21:44.887Z,32.70
2023-05-22T12:24:12.505Z,32.29
2023-05-22T12:26:40.312Z,32.01
2023-05-22T12:29:08.630Z,31.24
2023-05-22T12:31:38.356Z,30.73
2023-05-22T12:34:08.862Z,30.81
2023-05-22T12:36:40.943Z,30.44
2023-05-22T12:39:30.828Z,30.01
2023-05-22T12:41:58.477Z,29.51
2023-05-22T12:44:26.195Z,29.18
2023-05-22T12:46:53.809Z,29.36
2023-05-22T12:49:21.579Z,29.04
2023-05-22T12:51:49.214Z,28.61
2023-05-22T12:54:16.889Z,28.82
2023-05-22T12:56:44.507Z,28.77
2023-05-22T12:59:12.149Z,28.59
2023-05-22T13:01:39.796Z,28.43
2023-05-22T13:04:07.440Z,28.11
2023-05-22T13:06:35.261Z,27.82
2023-05-22T13:09:02.947Z,27.18
2023-05-22T13:11:30.877Z,26.19
2023-05-22T13:13:58.624Z,25.76
2023-05-22T13:16:26.291Z,25.72
2023-05-22T13:18:54.107Z,24.08
2023-05-22T13:21:21.825Z,24.32
2023-05-22T13:23:49.420Z,24.18
2023-05-22T13:26:17.464Z,24.27
2023-05-22T13:28:45.132Z,23.54
2023-05-22T13:31:12.787Z,23.39
2023-05-22T13:33:43.979Z,22.82
2023-05-22T13:36:11.966Z,22.13
2023-05-22T13:38:39.908Z,22.29
2023-05-22T13:41:07.551Z,21.90
2023-05-22T13:43:35.164Z,21.32
2023-05-22T13:46:04.024Z,20.39
2023-05-22T13:48:31.597Z,19.93
2023-05-22T13:50:59.437Z,19.16
2023-05-22T13:53:27.392Z,19.29
2023-05-22T13:55:55.122Z,18.88
2023-05-22T13:58:22.827Z,19.11
2023-05-22T14:00:50.739Z,18.47
2023-05-22T14:03:18.492Z,17.85
2023-05-22T14:05:46.166Z,18.19
2023-05-22T14:08:13.935Z,18.01
2023-05-22T14:10:42.091Z,17.92
2023-05-22T14:13:09.821Z,17.85
2023-05-22T14:15:37.562Z,18.05
2023-05-22T14:18:05.404Z,18.53
2023-05-22T14:20:33.068Z,18.69
2023-05-22T14:23:00.686Z,18.70
2023-05-22T14:25:28.390Z,18.64
2023-05-22T14:27:56.037Z,18.60
2023-05-22T14:30:23.756Z,18.75
2023-05-22T14:32:51.483Z,18.82
2023-05-22T14:35:19.365Z,19.19
2023-05-22T14:37:46.974Z,19.24
2023-05-22T14:40:14.614Z,19.26
2023-05-22T14:42:42.396Z,19.12
2023-05-22T14:45:10.362Z,19.14
2023-05-22T14:47:38.101Z,19.21
2023-05-22T14:50:18.336Z,19.12
2023-05-22T14:52:49.403Z,18.62
2023-05-22T14:55:17.918Z,18.65
2023-05-22T14:57:45.652Z,18.69
2023-05-22T15:00:14.120Z,18.73
2023-05-22T15:02:41.701Z,18.50
2023-05-22T15:05:09.802Z,18.32
2023-05-22T15:10:09.552Z,18.36
2023-05-22T15:12:37.251Z,18.23
2023-05-22T15:15:05.437Z,18.40
2023-05-22T15:17:33.093Z,18.29
2023-05-22T15:20:00.757Z,17.99
2023-05-22T15:22:28.406Z,17.87
2023-05-22T15:25:06.673Z,17.94
2023-05-22T15:27:35.504Z,17.82
2023-05-22T15:30:05.538Z,17.96
2023-05-22T15:32:33.328Z,17.83
2023-05-22T15:35:01.064Z,17.68
2023-05-22T15:37:36.526Z,17.58
2023-05-22T15:40:05.921Z,17.44
2023-05-22T15:42:33.700Z,17.56
2023-05-22T15:45:01.920Z,17.50
2023-05-22T15:47:29.863Z,17.51
2023-05-22T15:49:57.613Z,17.51
2023-05-22T15:52:25.374Z,17.43
2023-05-22T15:54:55.006Z,17.67
2023-05-22T15:57:24.083Z,17.81
2023-05-22T15:59:51.672Z,17.80
2023-05-22T16:02:19.968Z,17.85
2023-05-22T16:04:49.132Z,17.80
2023-05-22T16:07:18.780Z,17.65
2023-05-22T16:09:46.447Z,17.63
2023-05-22T16:12:14.170Z,17.86
2023-05-22T16:14:42.065Z,18.04
2023-05-22T16:17:09.683Z,18.16
2023-05-22T16:19:37.395Z,18.07
2023-05-22T16:22:05.337Z,18.03
2023-05-22T16:24:33.442Z,18.02
2023-05-22T16:27:01.087Z,17.93
2023-05-22T16:29:28.796Z,17.72
2023-05-22T16:31:57.043Z,17.88
2023-05-22T16:34:24.769Z,17.77
2023-05-22T16:36:52.392Z,17.72
2023-05-22T16:39:20.022Z,17.62
2023-05-22T16:41:47.709Z,17.81
2023-05-22T16:44:15.329Z,17.91
2023-05-22T16:46:43.264Z,17.95
2023-05-22T16:49:10.939Z,18.12
2023-05-22T16:51:38.592Z,18.50
2023-05-22T16:54:06.316Z,18.75
2023-05-22T16:56:34.054Z,18.89
2023-05-22T16:59:02.004Z,18.64
2023-05-22T17:01:29.890Z,18.53
2023-05-22T17:03:57.726Z,18.52
2023-05-22T17:06:27.495Z,18.53
2023-05-22T17:08:55.985Z,18.56
2023-05-22T17:11:25.858Z,18.56
2023-05-22T17:13:53.591Z,18.67
2023-05-22T17:16:21.289Z,18.79
2023-05-22T17:18:49.066Z,19.04
2023-05-22T17:21:17.378Z,19.20
2023-05-22T17:23:45.893Z,19.38
2023-05-22T17:26:14.246Z,19.66
2023-05-22T17:28:41.958Z,19.97
2023-05-22T17:31:09.572Z,20.18
2023-05-22T17:33:37.210Z,20.25
2023-05-22T17:36:05.249Z,20.48
2023-05-22T17:38:32.907Z,20.69
2023-05-22T17:41:00.956Z,20.86
2023-05-22T17:43:29.139Z,20.99
2023-05-22T17:45:59.171Z,21.32
2023-05-22T17:48:27.211Z,21.68
2023-05-22T17:50:55.477Z,21.99
2023-05-22T17:53:23.199Z,22.04
2023-05-22T17:55:52.281Z,22.37
2023-05-22T17:58:21.159Z,22.44
2023-05-22T18:00:49.018Z,22.64
2023-05-22T18:03:20.527Z,22.89
2023-05-22T18:05:49.363Z,23.86
2023-05-22T18:08:19.056Z,24.27
2023-05-22T18:10:47.447Z,24.41
2023-05-22T18:13:15.673Z,24.63
2023-05-22T18:15:43.339Z,25.02
2023-05-22T18:18:12.961Z,25.35
2023-05-22T18:20:41.155Z,25.56
2023-05-22T18:23:09.266Z,25.50
2023-05-22T18:25:36.923Z,25.80
2023-05-22T18:28:04.594Z,26.36
2023-05-22T18:30:32.550Z,26.99
2023-05-22T18:33:01.752Z,28.05
2023-05-22T18:35:29.438Z,27.93
2023-05-22T18:37:59.591Z,27.97
2023-05-22T18:40:27.301Z,28.21
2023-05-22T18:42:54.961Z,28.34
2023-05-22T18:45:22.697Z,28.78
2023-05-22T18:47:50.463Z,28.93
2023-05-22T18:50:18.687Z,28.77
2023-05-22T18:52:46.294Z,28.80
2023-05-22T18:55:14.385Z,29.15
2023-05-22T18:57:41.992Z,29.46
2023-05-22T19:00:10.309Z,29.65
2023-05-22T19:02:38.854Z,30.19
2023-05-22T19:05:06.956Z,30.54
2023-05-22T19:07:34.770Z,30.95
2023-05-22T19:10:06.292Z,31.04
2023-05-22T19:12:36.306Z,31.23
2023-05-22T19:15:05.698Z,31.34
2023-05-22T19:17:33.585Z,31.40
2023-05-22T19:20:06.136Z,31.71
2023-05-22T19:22:33.799Z,32.02
2023-05-22T19:25:02.750Z,32.24
2023-05-22T19:27:30.474Z,32.64
2023-05-22T19:29:58.079Z,32.76
2023-05-22T19:32:26.486Z,33.03
2023-05-22T19:34:54.136Z,33.18
2023-05-22T19:37:21.813Z,33.46
2023-05-22T19:39:50.322Z,33.77
2023-05-22T19:42:17.952Z,34.03
2023-05-22T19:44:46.925Z,34.19
2023-05-22T19:47:14.579Z,34.45
2023-05-22T19:49:42.250Z,34.77
2023-05-22T19:52:09.866Z,35.03
2023-05-22T19:54:37.472Z,35.14
2023-05-22T19:57:06.034Z,35.36
2023-05-22T19:59:36.433Z,35.39
2023-05-22T20:02:04.570Z,35.40
2023-05-22T20:04:32.595Z,35.56
2023-05-22T20:07:02.010Z,35.69
2023-05-22T20:09:30.283Z,35.76
2023-05-22T20:11:57.889Z,36.01
2023-05-22T20:14:25.492Z,36.22
2023-05-22T20:16:54.220Z,36.35
2023-05-22T20:19:24.105Z,36.49
2023-05-22T20:21:52.265Z,36.53
2023-05-22T20:24:25.067Z,36.64
2023-05-22T20:26:52.901Z,36.87
2023-05-22T20:29:21.616Z,37.17
2023-05-22T20:31:54.296Z,37.43
2023-05-22T20:34:23.398Z,37.78
2023-05-22T20:36:52.743Z,37.98
2023-05-22T20:39:22.105Z,38.08
2023-05-22T20:41:50.061Z,38.31
2023-05-22T20:44:18.656Z,38.51
2023-05-22T20:46:46.275Z,38.82
2023-05-22T20:49:13.870Z,39.17
2023-05-22T20:51:41.494Z,39.39
2023-05-22T20:54:09.090Z,39.67
2023-05-22T20:56:37.454Z,39.91
2023-05-22T20:59:05.111Z,40.24
2023-05-22T21:01:32.814Z,40.51
2023-05-22T21:04:00.773Z,40.72
2023-05-22T21:06:28.487Z,40.92
2023-05-22T21:08:59.698Z,41.07
2023-05-22T21:11:27.786Z,41.21
2023-05-22T21:13:55.484Z,41.36
2023-05-22T21:16:24.210Z,41.49
2023-05-22T21:18:51.885Z,41.66
2023-05-22T21:21:22.464Z,41.96
2023-05-22T21:23:50.696Z,41.98
2023-05-22T21:26:18.427Z,42.08
2023-05-22T21:28:46.218Z,42.17
2023-05-22T21:31:14.122Z,42.37
2023-05-22T21:33:41.880Z,42.68
2023-05-22T21:36:09.504Z,42.99
2023-05-22T21:38:37.226Z,43.04
2023-05-22T21:41:05.176Z,42.99
2023-05-22T21:43:32.757Z,43.03
2023-05-22T21:46:00.353Z,43.07
2023-05-22T21:48:27.983Z,43.14
2023-05-22T21:50:55.934Z,43.09
2023-05-22T21:53:23.921Z,43.23
2023-05-22T21:55:51.598Z,43.32
2023-05-22T21:58:19.245Z,43.46
2023-05-22T22:00:46.827Z,43.51
2023-05-22T22:03:14.649Z,43.48
2023-05-22T22:05:42.477Z,43.53
2023-05-22T22:08:10.076Z,43.68
2023-05-22T22:10:37.848Z,43.79
2023-05-22T22:13:05.727Z,43.92
2023-05-22T22:15:33.696Z,44.00
2023-05-22T22:18:02.331Z,44.15
2023-05-22T22:20:44.273Z,44.39
2023-05-22T22:23:12.882Z,44.68
2023-05-22T22:25:40.503Z,44.59
2023-05-22T22:28:08.105Z,44.72
2023-05-22T22:30:35.742Z,44.70
2023-05-22T22:33:03.534Z,44.88
2023-05-22T22:35:31.388Z,45.07
2023-05-22T22:37:59.390Z,45.02
2023-05-22T22:40:27.217Z,45.15
2023-05-22T22:42:54.876Z,45.28
2023-05-22T22:45:22.538Z,45.35
2023-05-22T22:47:50.196Z,45.51
2023-05-22T22:50:18.015Z,45.67
2023-05-22T22:52:45.610Z,45.73
2023-05-22T22:55:13.662Z,45.81
2023-05-22T22:57:47.004Z,46.12
2023-05-22T23:00:15.953Z,46.44
2023-05-22T23:02:43.697Z,46.62
2023-05-22T23:05:11.897Z,46.70
2023-05-22T23:07:39.746Z,46.68
2023-05-22T23:10:08.345Z,46.86
2023-05-22T23:12:36.159Z,47.00
2023-05-22T23:15:05.172Z,47.00
2023-05-22T23:17:32.869Z,47.09
2023-05-22T23:20:00.877Z,47.23
2023-05-22T23:22:28.521Z,47.36
2023-05-22T23:24:56.211Z,47.55
2023-05-22T23:27:23.964Z,47.67
2023-05-22T23:29:51.799Z,47.79
2023-05-22T23:32:19.653Z,47.94
2023-05-22T23:34:47.299Z,48.16
2023-05-22T23:37:15.600Z,48.12
2023-05-22T23:39:43.259Z,48.37
2023-05-22T23:42:11.933Z,48.51
2023-05-22T23:44:39.650Z,48.63
2023-05-22T23:47:07.321Z,48.79
2023-05-22T23:49:35.211Z,48.83
2023-05-22T23:52:02.952Z,49.01
2023-05-22T23:54:30.525Z,49.04
2023-05-22T23:56:58.145Z,49.17
2023-05-22T23:59:25.721Z,49.22
